createdAt,value
2022-10-17T00:00:04.253Z,14.50
2022-10-17T00:01:04.315Z,14.60
2022-10-17T00:02:04.262Z,14.50
2022-10-17T00:03:04.299Z,14.60
2022-10-17T00:04:04.228Z,14.50
2022-10-17T00:05:04.254Z,14.50
2022-10-17T00:06:04.267Z,14.50
2022-10-17T00:07:04.134Z,14.50
2022-10-17T00:08:04.100Z,14.50
2022-10-17T00:09:04.273Z,14.50
2022-10-17T00:10:04.267Z,14.60
2022-10-17T00:11:04.262Z,14.60
2022-10-17T00:12:04.273Z,14.50
2022-10-17T00:13:04.302Z,14.50
2022-10-17T00:14:04.264Z,14.50
2022-10-17T00:15:04.278Z,14.50
2022-10-17T00:16:04.282Z,14.50
2022-10-17T00:17:04.315Z,14.50
2022-10-17T00:18:04.285Z,14.50
2022-10-17T00:19:04.293Z,14.50
2022-10-17T00:20:04.274Z,14.50
2022-10-17T00:21:04.280Z,14.50
2022-10-17T00:22:04.145Z,14.50
2022-10-17T00:23:04.297Z,14.50
2022-10-17T00:24:04.310Z,14.50
2022-10-17T00:25:04.271Z,14.50
2022-10-17T00:26:04.166Z,14.50
2022-10-17T00:27:04.321Z,14.50
2022-10-17T00:28:04.304Z,14.50
2022-10-17T00:29:04.337Z,14.40
2022-10-17T00:30:04.301Z,14.40
2022-10-17T00:31:04.308Z,14.40
2022-10-17T00:32:04.332Z,14.40
2022-10-17T00:33:04.277Z,14.40
2022-10-17T00:34:04.309Z,14.40
2022-10-17T00:35:04.306Z,14.40
2022-10-17T00:36:04.310Z,14.40
2022-10-17T00:37:04.325Z,14.40
2022-10-17T00:38:04.305Z,14.40
2022-10-17T00:39:04.294Z,14.40
2022-10-17T00:40:04.283Z,14.40
2022-10-17T00:41:04.292Z,14.30
2022-10-17T00:42:04.329Z,14.30
2022-10-17T00:43:04.304Z,14.30
2022-10-17T00:44:04.323Z,14.30
2022-10-17T00:45:04.300Z,14.30
2022-10-17T00:46:04.303Z,14.30
2022-10-17T00:47:04.343Z,14.30
2022-10-17T00:48:04.276Z,14.30
2022-10-17T00:49:04.311Z,14.20
2022-10-17T00:50:04.324Z,14.20
2022-10-17T00:51:04.325Z,14.20
2022-10-17T00:52:04.317Z,14.20
2022-10-17T00:53:04.314Z,14.20
2022-10-17T00:54:04.321Z,14.20
2022-10-17T00:55:04.306Z,14.20
2022-10-17T00:56:04.289Z,14.20
2022-10-17T00:57:04.310Z,14.20
2022-10-17T00:58:04.329Z,14.20
2022-10-17T01:00:04.163Z,14.10
2022-10-17T01:01:04.358Z,14.10
2022-10-17T01:02:04.338Z,14.10
2022-10-17T01:03:04.303Z,14.10
2022-10-17T01:04:04.324Z,14.10
2022-10-17T01:05:04.304Z,14.10
2022-10-17T01:06:04.322Z,14.10
2022-10-17T01:07:04.342Z,14.10
2022-10-17T01:08:04.336Z,14.00
2022-10-17T01:09:04.328Z,14.00
2022-10-17T01:10:04.346Z,14.00
2022-10-17T01:11:04.305Z,14.00
2022-10-17T01:12:04.317Z,14.00
2022-10-17T01:13:04.333Z,14.00
2022-10-17T01:14:04.322Z,14.10
2022-10-17T01:15:04.331Z,14.00
2022-10-17T01:16:04.329Z,14.00
2022-10-17T01:17:04.352Z,14.10
2022-10-17T01:18:04.301Z,14.10
2022-10-17T01:19:04.340Z,14.10
2022-10-17T01:20:04.330Z,14.10
2022-10-17T01:21:04.347Z,14.20
2022-10-17T01:22:04.339Z,14.20
2022-10-17T01:23:04.337Z,14.20
2022-10-17T01:24:04.308Z,14.30
2022-10-17T01:25:04.189Z,14.40
2022-10-17T01:26:04.362Z,14.50
2022-10-17T01:27:04.340Z,14.50
2022-10-17T01:28:04.351Z,14.60
2022-10-17T01:29:04.316Z,14.80
2022-10-17T01:30:04.255Z,14.80
2022-10-17T01:31:04.164Z,15.00
2022-10-17T01:32:04.209Z,15.10
2022-10-17T01:33:04.163Z,15.20
2022-10-17T01:34:04.166Z,15.40
2022-10-17T01:35:04.137Z,15.50
2022-10-17T01:36:04.961Z,15.60
2022-10-17T01:37:04.199Z,15.70
2022-10-17T01:38:04.201Z,15.80
2022-10-17T01:39:04.366Z,15.80
2022-10-17T01:40:04.382Z,15.90
2022-10-17T01:41:04.345Z,16.00
2022-10-17T01:42:04.358Z,16.00
2022-10-17T01:43:04.379Z,16.10
2022-10-17T01:44:04.389Z,16.20
2022-10-17T01:45:04.339Z,16.20
2022-10-17T01:46:04.362Z,16.30
2022-10-17T01:47:04.384Z,16.40
2022-10-17T01:48:04.361Z,16.40
2022-10-17T01:49:04.349Z,16.40
2022-10-17T01:50:04.422Z,16.50
2022-10-17T01:51:04.380Z,16.50
2022-10-17T01:52:04.393Z,16.60
2022-10-17T01:53:04.384Z,16.60
2022-10-17T01:54:04.376Z,16.60
2022-10-17T01:55:04.369Z,16.70
2022-10-17T01:56:04.198Z,16.70
2022-10-17T01:57:04.231Z,16.70
2022-10-17T01:58:04.386Z,16.80
2022-10-17T01:59:04.393Z,16.80
2022-10-17T02:00:04.429Z,16.80
2022-10-17T02:01:04.485Z,16.80
2022-10-17T02:02:04.414Z,16.90
2022-10-17T02:03:04.386Z,16.90
2022-10-17T02:04:04.402Z,16.90
2022-10-17T02:05:04.406Z,16.90
2022-10-17T02:06:04.383Z,16.90
2022-10-17T02:07:04.407Z,17.00
2022-10-17T02:08:04.381Z,17.00
2022-10-17T02:09:04.395Z,17.00
2022-10-17T02:10:02.583Z,17.00
2022-10-17T02:11:04.205Z,17.00
2022-10-17T02:12:04.239Z,17.00
2022-10-17T02:13:04.376Z,17.00
2022-10-17T02:14:04.449Z,17.00
2022-10-17T02:15:04.454Z,17.00
2022-10-17T02:16:04.399Z,17.00
2022-10-17T02:17:04.400Z,17.00
2022-10-17T02:18:04.410Z,17.00
2022-10-17T02:19:04.407Z,17.00
2022-10-17T02:20:04.401Z,17.00
2022-10-17T02:21:04.402Z,17.00
2022-10-17T02:22:04.427Z,17.00
2022-10-17T02:23:04.384Z,17.00
2022-10-17T02:24:04.399Z,17.00
2022-10-17T02:25:04.411Z,17.00
2022-10-17T02:26:04.192Z,17.00
2022-10-17T02:27:02.625Z,17.00
2022-10-17T02:28:02.653Z,17.00
2022-10-17T02:29:02.667Z,17.00
2022-10-17T02:30:02.601Z,17.00
2022-10-17T02:31:02.627Z,17.00
2022-10-17T02:32:02.598Z,17.00
2022-10-17T02:33:02.573Z,17.00
2022-10-17T02:34:04.227Z,16.90
2022-10-17T02:35:04.198Z,16.90
2022-10-17T02:36:04.439Z,16.90
2022-10-17T02:37:04.253Z,16.90
2022-10-17T02:38:04.418Z,16.90
2022-10-17T02:39:04.401Z,16.90
2022-10-17T02:40:04.401Z,16.80
2022-10-17T02:41:04.390Z,16.80
2022-10-17T02:42:04.584Z,16.80
2022-10-17T02:43:04.416Z,16.80
2022-10-17T02:44:04.404Z,16.70
2022-10-17T02:45:04.405Z,16.70
2022-10-17T02:46:04.406Z,16.70
2022-10-17T02:47:04.423Z,16.70
2022-10-17T02:48:04.401Z,16.60
2022-10-17T02:49:04.425Z,16.60
2022-10-17T02:50:04.422Z,16.60
2022-10-17T02:51:04.406Z,16.50
2022-10-17T02:52:04.442Z,16.50
2022-10-17T02:53:04.417Z,16.50
2022-10-17T02:54:04.402Z,16.40
2022-10-17T02:55:04.425Z,16.40
2022-10-17T02:56:04.438Z,16.40
2022-10-17T02:57:04.430Z,16.40
2022-10-17T02:58:04.544Z,16.30
2022-10-17T02:59:02.637Z,16.30
2022-10-17T03:00:04.233Z,16.30
2022-10-17T03:01:04.327Z,16.20
2022-10-17T03:02:04.441Z,16.20
2022-10-17T03:03:04.430Z,16.20
2022-10-17T03:04:04.450Z,16.20
2022-10-17T03:05:04.430Z,16.10
2022-10-17T03:06:04.421Z,16.10
2022-10-17T03:07:04.447Z,16.10
2022-10-17T03:08:04.407Z,16.10
2022-10-17T03:09:04.414Z,16.10
2022-10-17T03:10:02.658Z,16.00
2022-10-17T03:11:02.619Z,16.00
2022-10-17T03:12:02.640Z,16.00
2022-10-17T03:13:02.666Z,16.00
2022-10-17T03:14:02.642Z,16.00
2022-10-17T03:15:04.273Z,16.00
2022-10-17T03:16:04.272Z,16.00
2022-10-17T03:17:04.466Z,15.90
2022-10-17T03:18:04.462Z,15.90
2022-10-17T03:19:04.436Z,15.90
2022-10-17T03:20:04.454Z,15.90
2022-10-17T03:21:04.459Z,15.90
2022-10-17T03:22:04.478Z,15.90
2022-10-17T03:23:04.465Z,15.80
2022-10-17T03:24:04.452Z,15.80
2022-10-17T03:25:02.676Z,15.80
2022-10-17T03:26:02.674Z,15.80
2022-10-17T03:27:02.684Z,15.80
2022-10-17T03:28:04.225Z,15.80
2022-10-17T03:29:04.281Z,15.70
2022-10-17T03:30:04.221Z,15.70
2022-10-17T03:31:04.276Z,15.70
2022-10-17T03:32:04.317Z,15.70
2022-10-17T03:33:04.325Z,15.70
2022-10-17T03:34:04.323Z,15.70
2022-10-17T03:35:04.328Z,15.70
2022-10-17T03:36:04.321Z,15.70
2022-10-17T03:37:04.321Z,15.70
2022-10-17T03:38:04.320Z,15.70
2022-10-17T03:39:04.455Z,15.60
2022-10-17T03:40:04.445Z,15.60
2022-10-17T03:41:04.455Z,15.60
2022-10-17T03:42:04.531Z,15.60
2022-10-17T03:43:04.466Z,15.60
2022-10-17T03:44:04.482Z,15.60
2022-10-17T03:45:04.471Z,15.60
2022-10-17T03:46:04.557Z,15.60
2022-10-17T03:47:04.506Z,15.60
2022-10-17T03:48:04.460Z,15.60
2022-10-17T03:49:04.470Z,15.60
2022-10-17T03:50:04.476Z,15.60
2022-10-17T03:51:04.471Z,15.60
2022-10-17T03:52:04.498Z,15.60
2022-10-17T03:53:04.484Z,15.60
2022-10-17T03:54:02.665Z,15.60
2022-10-17T03:55:02.715Z,15.60
2022-10-17T03:56:02.702Z,15.60
2022-10-17T03:57:02.718Z,15.60
2022-10-17T03:58:04.313Z,15.60
2022-10-17T03:59:04.343Z,15.60
2022-10-17T04:00:04.306Z,15.60
2022-10-17T04:01:04.424Z,15.60
2022-10-17T04:02:04.511Z,15.50
2022-10-17T04:03:04.500Z,15.50
2022-10-17T04:04:04.474Z,15.50
2022-10-17T04:05:04.480Z,15.50
2022-10-17T04:06:04.492Z,15.50
2022-10-17T04:07:04.470Z,15.50
2022-10-17T04:08:04.799Z,15.50
2022-10-17T04:09:04.486Z,15.50
2022-10-17T04:10:04.494Z,15.50
2022-10-17T04:11:04.499Z,15.40
2022-10-17T04:12:04.508Z,15.40
2022-10-17T04:13:04.490Z,15.40
2022-10-17T04:14:04.498Z,15.40
2022-10-17T04:15:04.565Z,15.50
2022-10-17T04:16:04.484Z,15.50
2022-10-17T04:17:02.701Z,15.50
2022-10-17T04:18:02.771Z,15.50
2022-10-17T04:19:04.324Z,15.60
2022-10-17T04:20:04.272Z,15.60
2022-10-17T04:21:02.749Z,15.60
2022-10-17T04:22:04.320Z,15.70
2022-10-17T04:23:04.360Z,15.70
2022-10-17T04:24:04.533Z,15.70
2022-10-17T04:25:04.534Z,15.80
2022-10-17T04:26:04.473Z,15.80
2022-10-17T04:27:04.529Z,15.80
2022-10-17T04:28:04.530Z,15.80
2022-10-17T04:29:04.508Z,15.80
2022-10-17T04:30:02.635Z,15.80
2022-10-17T04:31:02.693Z,15.80
2022-10-17T04:32:02.676Z,15.90
2022-10-17T04:33:02.687Z,15.90
2022-10-17T04:34:02.655Z,15.90
2022-10-17T04:35:02.609Z,15.90
2022-10-17T04:36:02.705Z,15.80
2022-10-17T04:37:02.745Z,15.80
2022-10-17T04:38:04.276Z,15.80
2022-10-17T04:39:04.353Z,15.80
2022-10-17T04:40:04.281Z,15.80
2022-10-17T04:41:04.367Z,15.80
2022-10-17T04:42:04.385Z,15.80
2022-10-17T04:43:04.383Z,15.80
2022-10-17T04:44:04.387Z,15.70
2022-10-17T04:45:04.572Z,15.70
2022-10-17T04:46:04.545Z,15.70
2022-10-17T04:47:04.519Z,15.70
2022-10-17T04:48:04.543Z,15.60
2022-10-17T04:49:04.540Z,15.60
2022-10-17T04:50:04.535Z,15.60
2022-10-17T04:51:04.550Z,15.60
2022-10-17T04:52:04.531Z,15.50
2022-10-17T04:53:04.534Z,15.50
2022-10-17T04:54:04.538Z,15.50
2022-10-17T04:55:04.544Z,15.50
2022-10-17T04:56:04.509Z,15.50
2022-10-17T04:57:04.538Z,15.50
2022-10-17T04:58:02.670Z,15.40
2022-10-17T04:59:04.550Z,15.40
2022-10-17T05:00:02.725Z,15.40
2022-10-17T05:01:04.604Z,15.40
2022-10-17T05:02:02.632Z,15.40
2022-10-17T05:03:04.557Z,15.30
2022-10-17T05:04:02.593Z,15.30
2022-10-17T05:05:02.678Z,15.30
2022-10-17T05:06:02.658Z,15.30
2022-10-17T05:07:04.302Z,15.30
2022-10-17T05:08:04.302Z,15.30
2022-10-17T05:09:04.584Z,15.20
2022-10-17T05:10:04.554Z,15.20
2022-10-17T05:11:04.537Z,15.20
2022-10-17T05:12:06.554Z,15.20
2022-10-17T05:13:04.558Z,15.20
2022-10-17T05:14:04.550Z,15.20
2022-10-17T05:15:04.549Z,15.20
2022-10-17T05:16:04.554Z,15.20
2022-10-17T05:17:04.588Z,15.20
2022-10-17T05:18:04.560Z,15.20
2022-10-17T05:19:04.551Z,15.20
2022-10-17T05:20:04.562Z,15.20
2022-10-17T05:21:04.573Z,15.20
2022-10-17T05:22:04.557Z,15.20
2022-10-17T05:23:04.567Z,15.20
2022-10-17T05:24:04.552Z,15.20
2022-10-17T05:25:04.583Z,15.20
2022-10-17T05:26:04.566Z,15.20
2022-10-17T05:27:02.703Z,15.20
2022-10-17T05:28:04.331Z,15.20
2022-10-17T05:29:02.859Z,15.20
2022-10-17T05:30:04.324Z,15.20
2022-10-17T05:31:04.370Z,15.20
2022-10-17T05:32:04.396Z,15.20
2022-10-17T05:33:04.605Z,15.20
2022-10-17T05:34:04.610Z,15.20
2022-10-17T05:35:04.550Z,15.20
2022-10-17T05:36:04.541Z,15.20
2022-10-17T05:37:04.559Z,15.20
2022-10-17T05:38:04.552Z,15.20
2022-10-17T05:39:04.543Z,15.20
2022-10-17T05:40:04.533Z,15.20
2022-10-17T05:41:04.582Z,15.20
2022-10-17T05:42:04.597Z,15.20
2022-10-17T05:43:04.603Z,15.20
2022-10-17T05:44:05.396Z,15.20
2022-10-17T05:45:02.832Z,15.20
2022-10-17T05:46:02.720Z,15.20
2022-10-17T05:47:02.808Z,15.20
2022-10-17T05:48:02.811Z,15.20
2022-10-17T05:49:10.618Z,15.20
2022-10-17T05:50:02.838Z,15.20
2022-10-17T05:51:04.409Z,15.20
2022-10-17T05:52:04.461Z,15.20
2022-10-17T05:53:04.603Z,15.20
2022-10-17T05:54:04.409Z,15.20
2022-10-17T05:55:04.445Z,15.20
2022-10-17T05:56:04.442Z,15.20
2022-10-17T05:57:04.432Z,15.20
2022-10-17T05:58:04.443Z,15.20
2022-10-17T05:59:04.430Z,15.20
2022-10-17T06:00:04.460Z,15.20
2022-10-17T06:01:04.904Z,15.20
2022-10-17T06:02:04.676Z,15.20
2022-10-17T06:03:04.575Z,15.20
2022-10-17T06:04:04.586Z,15.20
2022-10-17T06:05:04.635Z,15.20
2022-10-17T06:06:04.562Z,15.20
2022-10-17T06:07:04.571Z,15.20
2022-10-17T06:08:04.568Z,15.20
2022-10-17T06:09:04.586Z,15.20
2022-10-17T06:10:04.606Z,15.20
2022-10-17T06:11:05.987Z,15.20
2022-10-17T06:12:02.653Z,15.20
2022-10-17T06:13:02.815Z,15.20
2022-10-17T06:14:02.801Z,15.20
2022-10-17T06:15:02.770Z,15.20
2022-10-17T06:16:02.761Z,15.20
2022-10-17T06:17:02.740Z,15.20
2022-10-17T06:18:02.800Z,15.30
2022-10-17T06:19:02.752Z,15.30
2022-10-17T06:20:02.760Z,15.30
2022-10-17T06:21:02.783Z,15.40
2022-10-17T06:22:02.868Z,15.40
2022-10-17T06:23:02.834Z,15.50
2022-10-17T06:24:02.779Z,15.60
2022-10-17T06:25:02.796Z,15.70
2022-10-17T06:26:02.623Z,15.80
2022-10-17T06:27:02.649Z,15.90
2022-10-17T06:28:02.629Z,16.00
2022-10-17T06:29:04.704Z,16.10
2022-10-17T06:30:04.640Z,16.20
2022-10-17T06:31:04.668Z,16.30
2022-10-17T06:32:04.640Z,16.50
2022-10-17T06:33:04.635Z,16.60
2022-10-17T06:34:02.623Z,16.60
2022-10-17T06:35:02.806Z,16.70
2022-10-17T06:36:02.870Z,16.90
2022-10-17T06:37:02.799Z,17.00
2022-10-17T06:38:02.748Z,17.00
2022-10-17T06:39:02.728Z,17.10
2022-10-17T06:40:02.788Z,17.20
2022-10-17T06:41:02.774Z,17.30
2022-10-17T06:42:02.827Z,17.30
2022-10-17T06:43:04.449Z,17.40
2022-10-17T06:44:04.451Z,17.40
2022-10-17T06:45:04.395Z,17.50
2022-10-17T06:46:04.457Z,17.50
2022-10-17T06:47:02.861Z,17.50
2022-10-17T06:48:04.394Z,17.60
2022-10-17T06:49:04.497Z,17.60
2022-10-17T06:50:04.632Z,17.60
2022-10-17T06:51:04.644Z,17.60
2022-10-17T06:52:04.639Z,17.60
2022-10-17T06:53:04.607Z,17.60
2022-10-17T06:54:04.657Z,17.60
2022-10-17T06:56:02.747Z,17.70
2022-10-17T06:57:02.774Z,17.70
2022-10-17T06:58:02.708Z,17.70
2022-10-17T06:59:02.791Z,17.70
2022-10-17T07:00:02.725Z,17.70
2022-10-17T07:01:02.919Z,17.80
2022-10-17T07:02:02.872Z,17.80
2022-10-17T07:03:02.773Z,17.80
2022-10-17T07:04:02.736Z,17.80
2022-10-17T07:05:02.835Z,17.80
2022-10-17T07:06:02.908Z,17.80
2022-10-17T07:07:02.861Z,17.80
2022-10-17T07:08:04.403Z,17.80
2022-10-17T07:09:04.689Z,17.80
2022-10-17T07:10:04.565Z,17.80
2022-10-17T07:11:04.647Z,17.80
2022-10-17T07:12:04.695Z,17.80
2022-10-17T07:13:04.645Z,17.80
2022-10-17T07:14:04.689Z,17.80
2022-10-17T07:15:04.666Z,17.80
2022-10-17T07:16:04.654Z,17.80
2022-10-17T07:17:04.670Z,17.80
2022-10-17T07:18:02.679Z,17.80
2022-10-17T07:19:02.757Z,17.90
2022-10-17T07:20:02.704Z,17.90
2022-10-17T07:21:02.744Z,17.90
2022-10-17T07:22:02.721Z,17.90
2022-10-17T07:23:02.677Z,17.90
2022-10-17T07:24:02.734Z,17.90
2022-10-17T07:25:02.695Z,18.00
2022-10-17T07:26:02.861Z,18.00
2022-10-17T07:27:02.930Z,18.00
2022-10-17T07:28:04.488Z,18.10
2022-10-17T07:29:04.520Z,18.10
2022-10-17T07:30:04.644Z,18.20
2022-10-17T07:31:04.525Z,18.20
2022-10-17T07:32:04.695Z,18.30
2022-10-17T07:33:04.690Z,18.30
2022-10-17T07:34:04.696Z,18.40
2022-10-17T07:35:04.526Z,18.40
2022-10-17T07:36:04.533Z,18.50
2022-10-17T07:37:04.535Z,18.50
2022-10-17T07:38:04.543Z,18.50
2022-10-17T07:39:04.505Z,18.60
2022-10-17T07:40:04.549Z,18.60
2022-10-17T07:41:04.504Z,18.60
2022-10-17T07:42:04.542Z,18.70
2022-10-17T07:43:04.705Z,18.80
2022-10-17T07:44:04.671Z,18.80
2022-10-17T07:45:04.680Z,18.90
2022-10-17T07:46:04.689Z,18.90
2022-10-17T07:47:04.685Z,19.00
2022-10-17T07:48:04.682Z,19.00
2022-10-17T07:49:04.703Z,19.10
2022-10-17T07:50:04.684Z,19.10
2022-10-17T07:51:04.721Z,19.20
2022-10-17T07:52:04.677Z,19.20
2022-10-17T07:53:04.690Z,19.30
2022-10-17T07:54:04.716Z,19.40
2022-10-17T07:55:04.681Z,19.40
2022-10-17T07:56:04.700Z,19.50
2022-10-17T07:57:04.726Z,19.50
2022-10-17T07:58:04.703Z,19.50
2022-10-17T07:59:03.917Z,19.50
2022-10-17T08:00:02.712Z,19.50
2022-10-17T08:02:02.696Z,19.60
2022-10-17T08:03:02.778Z,19.60
2022-10-17T08:04:02.825Z,19.60
2022-10-17T08:05:02.937Z,19.60
2022-10-17T08:06:02.930Z,19.70
2022-10-17T08:07:11.845Z,19.70
2022-10-17T08:08:02.945Z,19.70
2022-10-17T08:09:02.868Z,19.70
2022-10-17T08:10:02.895Z,19.80
2022-10-17T08:11:02.856Z,19.80
2022-10-17T08:12:02.938Z,19.80
2022-10-17T08:13:02.831Z,19.90
2022-10-17T08:14:02.869Z,19.90
2022-10-17T08:15:04.487Z,19.90
2022-10-17T08:16:04.568Z,20.00
2022-10-17T08:17:04.575Z,20.00
2022-10-17T08:18:04.700Z,20.00
2022-10-17T08:19:04.788Z,20.10
2022-10-17T08:20:04.714Z,20.10
2022-10-17T08:21:04.679Z,20.10
2022-10-17T08:22:04.718Z,20.10
2022-10-17T08:23:04.734Z,20.20
2022-10-17T08:24:04.685Z,20.20
2022-10-17T08:25:04.723Z,20.20
2022-10-17T08:26:04.734Z,20.30
2022-10-17T08:27:04.721Z,20.30
2022-10-17T08:28:04.794Z,20.30
2022-10-17T08:29:04.776Z,20.30
2022-10-17T08:30:04.728Z,20.40
2022-10-17T08:31:04.751Z,20.40
2022-10-17T08:32:04.550Z,20.40
2022-10-17T08:33:02.670Z,20.40
2022-10-17T08:34:02.632Z,20.50
2022-10-17T08:35:02.763Z,20.50
2022-10-17T08:36:02.898Z,20.50
2022-10-17T08:37:03.015Z,20.50
2022-10-17T08:38:02.968Z,20.60
2022-10-17T08:39:04.493Z,20.60
2022-10-17T08:40:02.946Z,20.60
2022-10-17T08:41:02.994Z,20.70
2022-10-17T08:42:02.984Z,20.70
2022-10-17T08:43:04.608Z,20.70
2022-10-17T08:44:04.594Z,20.70
2022-10-17T08:45:04.768Z,20.80
2022-10-17T08:46:04.780Z,20.80
2022-10-17T08:47:04.751Z,20.80
2022-10-17T08:48:04.717Z,20.90
2022-10-17T08:49:06.597Z,20.90
2022-10-17T08:50:04.740Z,21.00
2022-10-17T08:51:04.744Z,21.00
2022-10-17T08:52:02.677Z,21.00
2022-10-17T08:53:02.671Z,21.10
2022-10-17T08:54:02.796Z,21.10
2022-10-17T08:55:02.867Z,21.10
2022-10-17T08:56:02.873Z,21.20
2022-10-17T08:57:02.912Z,21.20
2022-10-17T08:58:04.594Z,21.20
2022-10-17T08:59:04.598Z,21.30
2022-10-17T09:00:04.739Z,21.30
2022-10-17T09:01:06.971Z,21.30
2022-10-17T09:02:04.755Z,21.40
2022-10-17T09:03:04.803Z,21.40
2022-10-17T09:04:04.730Z,21.40
2022-10-17T09:05:04.741Z,21.50
2022-10-17T09:06:04.777Z,21.50
2022-10-17T09:07:02.633Z,21.50
2022-10-17T09:08:02.659Z,21.50
2022-10-17T09:09:02.742Z,21.60
2022-10-17T09:10:02.634Z,21.60
2022-10-17T09:11:02.821Z,21.60
2022-10-17T09:12:02.868Z,21.60
2022-10-17T09:13:05.380Z,21.70
2022-10-17T09:14:04.518Z,21.70
2022-10-17T09:15:04.517Z,21.70
2022-10-17T09:16:04.554Z,21.80
2022-10-17T09:17:03.011Z,21.80
2022-10-17T09:18:04.585Z,21.80
2022-10-17T09:19:04.607Z,21.90
2022-10-17T09:20:04.581Z,21.90
2022-10-17T09:21:04.634Z,22.00
2022-10-17T09:22:04.808Z,22.00
2022-10-17T09:23:04.591Z,22.00
2022-10-17T09:24:09.298Z,22.10
2022-10-17T09:25:04.743Z,22.10
2022-10-17T09:26:04.771Z,22.10
2022-10-17T09:27:04.798Z,22.10
2022-10-17T09:28:04.750Z,22.20
2022-10-17T09:29:04.787Z,22.20
2022-10-17T09:30:07.131Z,22.20
2022-10-17T09:31:04.739Z,22.30
2022-10-17T09:32:04.800Z,22.30
2022-10-17T09:33:02.706Z,22.30
2022-10-17T09:34:02.702Z,22.30
2022-10-17T09:35:02.903Z,22.40
2022-10-17T09:36:02.810Z,22.40
2022-10-17T09:37:02.771Z,22.40
2022-10-17T09:38:02.922Z,22.40
2022-10-17T09:39:02.932Z,22.40
2022-10-17T09:40:02.901Z,22.50
2022-10-17T09:41:02.933Z,22.50
2022-10-17T09:42:03.027Z,22.50
2022-10-17T09:43:03.012Z,22.60
2022-10-17T09:44:04.535Z,22.60
2022-10-17T09:45:03.011Z,22.60
2022-10-17T09:46:03.016Z,22.60
2022-10-17T09:47:04.553Z,22.60
2022-10-17T09:48:04.564Z,22.70
2022-10-17T09:49:04.638Z,22.70
2022-10-17T09:50:04.583Z,22.70
2022-10-17T09:51:15.036Z,22.70
2022-10-17T09:52:04.643Z,22.70
2022-10-17T09:53:04.650Z,22.80
2022-10-17T09:54:04.790Z,22.80
2022-10-17T09:55:04.751Z,22.80
2022-10-17T09:56:04.766Z,22.80
2022-10-17T09:57:04.800Z,22.80
2022-10-17T09:58:04.771Z,22.90
2022-10-17T09:59:04.793Z,22.90
2022-10-17T10:00:04.898Z,22.90
2022-10-17T10:01:02.709Z,22.90
2022-10-17T10:02:02.756Z,23.00
2022-10-17T10:03:02.713Z,23.00
2022-10-17T10:04:02.771Z,23.00
2022-10-17T10:05:05.362Z,23.00
2022-10-17T10:06:02.806Z,23.00
2022-10-17T10:07:02.771Z,23.10
2022-10-17T10:08:02.840Z,23.10
2022-10-17T10:09:02.813Z,23.10
2022-10-17T10:10:02.849Z,23.10
2022-10-17T10:11:02.910Z,23.20
2022-10-17T10:12:02.863Z,23.20
2022-10-17T10:13:02.814Z,23.20
2022-10-17T10:14:03.024Z,23.20
2022-10-17T10:15:02.988Z,23.20
2022-10-17T10:16:02.968Z,23.30
2022-10-17T10:17:02.946Z,23.30
2022-10-17T10:18:02.806Z,23.30
2022-10-17T10:19:04.714Z,23.30
2022-10-17T10:20:02.845Z,23.40
2022-10-17T10:21:02.869Z,23.40
2022-10-17T10:22:02.781Z,23.40
2022-10-17T10:23:02.763Z,23.40
2022-10-17T10:24:02.900Z,23.40
2022-10-17T10:25:02.846Z,23.50
2022-10-17T10:26:02.861Z,23.50
2022-10-17T10:27:02.889Z,23.50
2022-10-17T10:28:03.012Z,23.60
2022-10-17T10:29:02.996Z,23.60
2022-10-17T10:30:03.093Z,23.60
2022-10-17T10:31:03.109Z,23.70
2022-10-17T10:32:03.005Z,23.70
2022-10-17T10:33:03.079Z,23.70
2022-10-17T10:34:03.054Z,23.70
2022-10-17T10:35:03.103Z,23.80
2022-10-17T10:36:04.608Z,23.80
2022-10-17T10:37:04.647Z,23.80
2022-10-17T10:38:03.110Z,23.80
2022-10-17T10:39:03.994Z,23.80
2022-10-17T10:40:02.985Z,23.80
2022-10-17T10:41:03.024Z,23.90
2022-10-17T10:42:03.101Z,23.90
2022-10-17T10:43:05.540Z,23.90
2022-10-17T10:44:03.111Z,23.90
2022-10-17T10:45:03.087Z,23.90
2022-10-17T10:46:03.019Z,23.90
2022-10-17T10:47:03.064Z,23.90
2022-10-17T10:48:03.006Z,24.00
2022-10-17T10:49:03.048Z,24.00
2022-10-17T10:50:03.080Z,24.00
2022-10-17T10:51:04.628Z,24.00
2022-10-17T10:52:03.031Z,24.00
2022-10-17T10:53:03.126Z,24.00
2022-10-17T10:54:04.660Z,24.00
2022-10-17T10:55:04.721Z,24.00
2022-10-17T10:56:04.718Z,24.00
2022-10-17T10:57:04.890Z,24.10
2022-10-17T10:58:04.876Z,24.10
2022-10-17T10:59:04.916Z,24.10
2022-10-17T11:00:04.893Z,24.10
2022-10-17T11:01:04.940Z,24.10
2022-10-17T11:02:04.914Z,24.10
2022-10-17T11:03:04.839Z,24.10
2022-10-17T11:04:04.843Z,24.10
2022-10-17T11:05:04.866Z,24.10
2022-10-17T11:06:02.765Z,24.10
2022-10-17T11:07:02.874Z,24.10
2022-10-17T11:08:02.895Z,24.10
2022-10-17T11:09:02.939Z,24.10
2022-10-17T11:10:02.886Z,24.10
2022-10-17T11:11:02.815Z,24.10
2022-10-17T11:12:02.787Z,24.10
2022-10-17T11:13:02.835Z,24.10
2022-10-17T11:14:02.949Z,24.10
2022-10-17T11:15:02.914Z,24.20
2022-10-17T11:16:02.937Z,24.20
2022-10-17T11:17:03.042Z,24.20
2022-10-17T11:18:03.113Z,24.20
2022-10-17T11:19:04.705Z,24.20
2022-10-17T11:20:04.744Z,24.20
2022-10-17T11:21:04.903Z,24.20
2022-10-17T11:22:04.857Z,24.20
2022-10-17T11:23:04.866Z,24.30
2022-10-17T11:24:06.775Z,24.30
2022-10-17T11:25:04.951Z,24.30
2022-10-17T11:26:04.865Z,24.30
2022-10-17T11:27:02.694Z,24.30
2022-10-17T11:28:05.035Z,24.30
2022-10-17T11:29:02.676Z,24.30
2022-10-17T11:30:04.889Z,24.30
2022-10-17T11:31:06.966Z,24.30
2022-10-17T11:32:04.893Z,24.30
2022-10-17T11:33:02.628Z,24.30
2022-10-17T11:34:02.769Z,24.30
2022-10-17T11:35:02.658Z,24.30
2022-10-17T11:36:02.770Z,24.30
2022-10-17T11:37:02.765Z,24.30
2022-10-17T11:38:02.849Z,24.30
2022-10-17T11:39:02.867Z,24.30
2022-10-17T11:40:02.937Z,24.30
2022-10-17T11:41:02.906Z,24.30
2022-10-17T11:42:03.416Z,24.30
2022-10-17T11:43:02.787Z,24.30
2022-10-17T11:44:02.822Z,24.30
2022-10-17T11:45:02.882Z,24.30
2022-10-17T11:46:02.859Z,24.30
2022-10-17T11:47:02.936Z,24.40
2022-10-17T11:48:02.898Z,24.40
2022-10-17T11:49:03.064Z,24.30
2022-10-17T11:52:03.452Z,24.30
2022-10-17T11:53:03.627Z,24.30
2022-10-17T11:54:03.183Z,24.30
2022-10-17T11:55:04.676Z,24.30
2022-10-17T11:56:04.756Z,24.40
2022-10-17T11:57:04.912Z,24.40
2022-10-17T11:58:02.665Z,24.40
2022-10-17T11:59:03.130Z,24.40
2022-10-17T12:00:04.908Z,24.40
2022-10-17T12:01:04.782Z,24.40
2022-10-17T12:02:04.770Z,24.40
2022-10-17T12:03:02.982Z,24.40
2022-10-17T12:04:02.988Z,24.40
2022-10-17T12:05:03.132Z,24.40
2022-10-17T12:06:03.089Z,24.40
2022-10-17T12:07:03.127Z,24.40
2022-10-17T12:08:03.034Z,24.40
2022-10-17T12:09:03.081Z,24.40
2022-10-17T12:10:03.134Z,24.40
2022-10-17T12:11:03.134Z,24.40
2022-10-17T12:12:04.806Z,24.40
2022-10-17T12:13:04.932Z,24.40
2022-10-17T12:14:06.108Z,24.40
2022-10-17T12:15:04.948Z,24.30
2022-10-17T12:16:04.920Z,24.40
2022-10-17T12:17:04.969Z,24.30
2022-10-17T12:18:04.905Z,24.30
2022-10-17T12:19:04.946Z,24.30
2022-10-17T12:20:04.970Z,24.30
2022-10-17T12:21:04.926Z,24.30
2022-10-17T12:22:04.955Z,24.30
2022-10-17T12:23:02.711Z,24.30
2022-10-17T12:24:02.661Z,24.40
2022-10-17T12:25:02.674Z,24.40
2022-10-17T12:26:04.621Z,24.40
2022-10-17T12:27:02.837Z,24.40
2022-10-17T12:28:02.783Z,24.40
2022-10-17T12:29:02.820Z,24.40
2022-10-17T12:30:02.731Z,24.40
2022-10-17T12:31:02.815Z,24.40
2022-10-17T12:32:02.769Z,24.40
2022-10-17T12:33:06.000Z,24.40
2022-10-17T12:34:02.931Z,24.40
2022-10-17T12:35:02.998Z,24.40
2022-10-17T12:36:03.165Z,24.50
2022-10-17T12:37:04.871Z,24.50
2022-10-17T12:38:04.707Z,24.50
2022-10-17T12:39:04.716Z,24.50
2022-10-17T12:40:03.199Z,24.50
2022-10-17T12:41:04.798Z,24.50
2022-10-17T12:42:04.769Z,24.50
2022-10-17T12:43:04.722Z,24.50
2022-10-17T12:44:04.748Z,24.50
2022-10-17T12:45:04.833Z,24.50
2022-10-17T12:46:04.814Z,24.50
2022-10-17T12:47:04.810Z,24.50
2022-10-17T12:48:04.953Z,24.50
2022-10-17T12:49:04.812Z,24.50
2022-10-17T12:50:04.812Z,24.50
2022-10-17T12:51:34.613Z,24.50
2022-10-17T12:52:04.963Z,24.50
2022-10-17T12:53:04.806Z,24.50
2022-10-17T12:54:04.977Z,24.50
2022-10-17T12:55:12.920Z,24.50
2022-10-17T12:56:02.711Z,24.50
2022-10-17T12:57:02.626Z,24.50